createdAt,value
2023-03-28T00:02:17.910Z,63.07
2023-03-28T00:05:03.706Z,61.94
2023-03-28T00:07:47.398Z,61.30
2023-03-28T00:10:34.402Z,61.59
2023-03-28T00:13:18.163Z,62.31
2023-03-28T00:16:07.548Z,62.16
2023-03-28T00:18:48.018Z,61.81
2023-03-28T00:21:35.980Z,62.95
2023-03-28T00:24:21.180Z,62.95
2023-03-28T00:27:01.995Z,63.21
2023-03-28T00:29:51.146Z,64.55
2023-03-28T00:32:29.296Z,66.34
2023-03-28T00:35:26.060Z,66.53
2023-03-28T00:38:03.926Z,67.81
2023-03-28T00:40:48.822Z,68.02
2023-03-28T00:43:49.487Z,69.04
2023-03-28T00:46:37.228Z,70.12
2023-03-28T00:49:28.695Z,70.12
2023-03-28T00:52:11.398Z,71.76
2023-03-28T00:54:55.646Z,72.25
2023-03-28T00:57:37.156Z,72.60
2023-03-28T01:00:23.967Z,73.51
2023-03-28T01:03:01.854Z,72.88
2023-03-28T01:05:43.018Z,73.21
2023-03-28T01:08:29.673Z,73.12
2023-03-28T01:11:08.962Z,74.29
2023-03-28T01:13:56.814Z,74.54
2023-03-28T01:16:42.240Z,73.82
2023-03-28T01:19:30.357Z,73.42
2023-03-28T01:22:29.300Z,73.92
2023-03-28T01:25:29.214Z,74.27
2023-03-28T01:28:13.899Z,74.46
2023-03-28T01:31:33.622Z,75.22
2023-03-28T01:35:17.380Z,75.45
2023-03-28T01:38:13.648Z,75.25
2023-03-28T01:41:05.933Z,76.03
2023-03-28T01:44:16.648Z,75.42
2023-03-28T01:47:01.477Z,75.50
2023-03-28T01:49:58.511Z,76.23
2023-03-28T01:52:44.211Z,76.46
2023-03-28T01:56:00.610Z,75.84
2023-03-28T01:59:20.952Z,76.82
2023-03-28T02:02:30.574Z,76.86
2023-03-28T02:05:29.554Z,76.73
2023-03-28T02:08:14.783Z,77.51
2023-03-28T02:11:07.819Z,77.81
2023-03-28T02:14:12.103Z,78.24
2023-03-28T02:16:58.839Z,79.19
2023-03-28T02:19:51.739Z,78.52
2023-03-28T02:22:54.384Z,78.56
2023-03-28T02:25:49.385Z,79.16
2023-03-28T02:28:51.899Z,80.14
2023-03-28T02:31:48.113Z,79.57
2023-03-28T02:34:32.506Z,81.04
2023-03-28T02:37:29.993Z,81.81
2023-03-28T02:40:32.718Z,81.45
2023-03-28T02:43:44.942Z,82.05
2023-03-28T02:46:56.284Z,82.60
2023-03-28T02:49:54.331Z,84.19
2023-03-28T02:52:37.083Z,84.00
2023-03-28T02:55:45.687Z,83.96
2023-03-28T02:59:25.914Z,84.38
2023-03-28T03:02:08.932Z,85.29
2023-03-28T03:04:51.390Z,86.29
2023-03-28T03:07:31.174Z,86.34
2023-03-28T03:10:22.838Z,86.83
2023-03-28T03:13:03.467Z,88.48
2023-03-28T03:15:52.287Z,88.02
2023-03-28T03:18:37.170Z,88.62
2023-03-28T03:21:18.978Z,88.99
2023-03-28T03:24:06.333Z,89.05
2023-03-28T03:26:52.279Z,90.76
2023-03-28T03:29:38.302Z,90.26
2023-03-28T03:32:33.851Z,91.03
2023-03-28T03:35:24.399Z,91.71
2023-03-28T03:38:04.591Z,92.42
2023-03-28T03:40:42.216Z,93.28
2023-03-28T03:43:24.037Z,93.46
2023-03-28T03:46:03.223Z,94.20
2023-03-28T03:48:50.080Z,95.32
2023-03-28T03:51:34.152Z,96.01
2023-03-28T03:54:20.891Z,97.78
2023-03-28T03:57:03.549Z,98.08
2023-03-28T03:59:44.866Z,98.67
2023-03-28T04:02:27.002Z,99.60
2023-03-28T04:05:13.632Z,100.00
2023-03-28T04:08:15.555Z,100.00
2023-03-28T04:11:00.355Z,100.00
2023-03-28T04:13:50.179Z,100.00
2023-03-28T04:16:40.274Z,100.00
2023-03-28T04:19:19.950Z,100.00
2023-03-28T04:22:13.148Z,100.00
2023-03-28T04:25:10.021Z,100.00
2023-03-28T04:27:56.281Z,100.00
2023-03-28T04:30:38.935Z,100.00
2023-03-28T04:33:27.908Z,100.00
2023-03-28T04:36:06.172Z,100.00
2023-03-28T04:38:54.565Z,100.00
2023-03-28T04:41:57.764Z,100.00
2023-03-28T04:45:00.130Z,100.00
2023-03-28T04:47:48.475Z,100.00
2023-03-28T04:50:39.339Z,100.00
2023-03-28T04:53:26.818Z,100.00
2023-03-28T04:56:26.871Z,100.00
2023-03-28T04:59:05.935Z,100.00
2023-03-28T05:01:53.609Z,100.00
2023-03-28T05:04:54.364Z,100.00
2023-03-28T05:07:40.957Z,100.00
2023-03-28T05:10:21.845Z,100.00
2023-03-28T05:13:05.082Z,100.00
2023-03-28T05:15:57.323Z,100.00
2023-03-28T05:19:19.794Z,100.00
2023-03-28T05:22:14.815Z,100.00
2023-03-28T05:24:54.099Z,100.00
2023-03-28T05:27:46.580Z,100.00
2023-03-28T05:30:31.915Z,100.00
2023-03-28T05:33:22.822Z,100.00
2023-03-28T05:36:02.101Z,99.25
2023-03-28T05:38:48.469Z,97.85
2023-03-28T05:41:32.993Z,95.60
2023-03-28T05:44:18.964Z,94.86
2023-03-28T05:47:31.100Z,93.10
2023-03-28T05:50:12.828Z,89.83
2023-03-28T05:52:54.295Z,90.21
2023-03-28T05:55:40.694Z,87.63
2023-03-28T05:58:21.624Z,86.62
2023-03-28T06:01:06.657Z,85.03
2023-03-28T06:03:53.188Z,84.59
2023-03-28T06:06:37.562Z,84.08
2023-03-28T06:09:23.705Z,83.25
2023-03-28T06:12:10.630Z,83.17
2023-03-28T06:14:56.822Z,81.69
2023-03-28T06:17:44.947Z,83.71
2023-03-28T06:20:32.848Z,82.08
2023-03-28T06:23:19.091Z,81.43
2023-03-28T06:26:10.874Z,80.46
2023-03-28T06:28:57.896Z,81.28
2023-03-28T06:31:50.131Z,80.50
2023-03-28T06:34:44.610Z,80.81
2023-03-28T06:37:28.945Z,81.26
2023-03-28T06:40:17.874Z,78.55
2023-03-28T06:42:58.089Z,78.52
2023-03-28T06:45:51.900Z,78.02
2023-03-28T06:48:33.609Z,79.24
2023-03-28T06:51:47.348Z,77.52
2023-03-28T06:54:26.158Z,75.85
2023-03-28T06:57:10.516Z,76.49
2023-03-28T07:00:11.140Z,76.57
2023-03-28T07:03:17.610Z,76.98
2023-03-28T07:06:03.581Z,77.71
2023-03-28T07:08:46.846Z,76.90
2023-03-28T07:11:30.231Z,77.01
2023-03-28T07:14:11.472Z,77.37
2023-03-28T07:16:46.886Z,78.63
2023-03-28T07:19:36.877Z,77.19
2023-03-28T07:22:15.812Z,76.60
2023-03-28T07:24:51.902Z,77.38
2023-03-28T07:27:33.849Z,74.26
2023-03-28T07:30:17.798Z,75.96
2023-03-28T07:33:17.447Z,75.86
2023-03-28T07:36:08.680Z,73.53
2023-03-28T07:38:50.008Z,75.07
2023-03-28T07:41:35.847Z,74.05
2023-03-28T07:44:22.275Z,75.02
2023-03-28T07:47:09.801Z,73.28
2023-03-28T07:49:52.070Z,72.88
2023-03-28T07:52:34.885Z,73.48
2023-03-28T07:55:24.105Z,72.41
2023-03-28T07:58:09.694Z,73.32
2023-03-28T08:00:54.818Z,75.78
2023-03-28T08:03:59.764Z,75.18
2023-03-28T08:07:02.865Z,74.55
2023-03-28T08:10:05.393Z,73.26
2023-03-28T08:12:55.819Z,71.80
2023-03-28T08:15:36.633Z,74.11
2023-03-28T08:18:18.634Z,72.54
2023-03-28T08:21:04.728Z,72.84
2023-03-28T08:23:47.826Z,74.27
2023-03-28T08:26:34.590Z,74.95
2023-03-28T08:29:21.647Z,74.64
2023-03-28T08:32:18.793Z,76.94
2023-03-28T08:34:59.848Z,75.71
2023-03-28T08:37:42.888Z,73.21
2023-03-28T08:40:23.072Z,69.24
2023-03-28T08:43:19.925Z,71.38
2023-03-28T08:46:20.143Z,72.41
2023-03-28T08:49:13.840Z,71.20
2023-03-28T08:51:55.170Z,71.57
2023-03-28T08:54:50.605Z,68.51
2023-03-28T08:57:40.804Z,69.80
2023-03-28T09:00:56.315Z,66.29
2023-03-28T09:03:35.483Z,65.59
2023-03-28T09:06:32.213Z,67.00
2023-03-28T09:09:34.371Z,67.44
2023-03-28T09:12:47.933Z,66.19
2023-03-28T09:16:45.900Z,65.00
2023-03-28T09:19:48.776Z,62.88
2023-03-28T09:23:01.786Z,64.91
2023-03-28T09:26:25.636Z,62.86
2023-03-28T09:29:29.779Z,61.92
2023-03-28T09:32:16.095Z,58.07
2023-03-28T09:35:19.443Z,59.38
2023-03-28T09:38:05.808Z,57.78
2023-03-28T09:40:47.811Z,57.37
2023-03-28T09:47:28.226Z,54.42
2023-03-28T09:50:25.338Z,54.37
2023-03-28T09:53:22.175Z,53.48
2023-03-28T09:56:12.417Z,54.71
2023-03-28T09:59:07.427Z,53.68
2023-03-28T10:02:03.266Z,52.41
2023-03-28T10:04:52.248Z,55.22
2023-03-28T10:08:06.703Z,52.67
2023-03-28T10:11:07.683Z,53.19
2023-03-28T10:14:00.138Z,53.33
2023-03-28T10:16:42.637Z,55.35
2023-03-28T10:19:43.259Z,57.42
2023-03-28T10:22:33.954Z,55.11
2023-03-28T10:25:20.759Z,54.56
2023-03-28T10:28:08.246Z,56.37
2023-03-28T10:30:47.503Z,50.12
2023-03-28T10:33:57.610Z,44.94
2023-03-28T10:37:00.384Z,44.99
2023-03-28T10:40:05.826Z,44.67
2023-03-28T10:43:17.108Z,45.08
2023-03-28T10:46:17.321Z,45.16
2023-03-28T10:50:00.585Z,43.63
2023-03-28T10:53:15.183Z,42.47
2023-03-28T10:56:12.515Z,41.13
2023-03-28T10:59:47.040Z,40.45
2023-03-28T11:02:40.861Z,41.06
2023-03-28T11:06:05.661Z,42.29
2023-03-28T11:08:52.746Z,42.19
2023-03-28T11:11:44.795Z,45.50
2023-03-28T11:15:13.643Z,44.67
2023-03-28T11:18:23.170Z,44.45
2023-03-28T11:21:32.513Z,44.41
2023-03-28T11:24:50.562Z,40.62
2023-03-28T11:27:58.976Z,41.58
2023-03-28T11:30:52.081Z,41.66
2023-03-28T11:33:55.384Z,44.52
2023-03-28T11:36:44.828Z,43.28
2023-03-28T11:39:56.227Z,42.05
2023-03-28T11:43:00.777Z,41.64
2023-03-28T11:46:06.033Z,38.23
2023-03-28T11:49:01.310Z,41.72
2023-03-28T11:52:01.284Z,40.58
2023-03-28T11:55:06.373Z,40.99
2023-03-28T11:58:00.949Z,38.41
2023-03-28T12:00:51.211Z,37.65
2023-03-28T12:03:42.784Z,38.65
2023-03-28T12:06:32.821Z,38.70
2023-03-28T12:09:17.291Z,35.39
2023-03-28T12:11:58.431Z,35.59
2023-03-28T12:14:52.257Z,38.49
2023-03-28T12:18:14.234Z,37.33
2023-03-28T12:20:56.230Z,37.75
2023-03-28T12:24:12.933Z,39.26
2023-03-28T12:27:25.758Z,39.09
2023-03-28T12:30:25.777Z,38.96
2023-03-28T12:33:19.565Z,39.39
2023-03-28T12:36:34.279Z,40.94
2023-03-28T12:39:35.011Z,39.90
2023-03-28T12:42:23.328Z,39.63
2023-03-28T12:45:20.258Z,35.20
2023-03-28T12:48:03.635Z,36.79
2023-03-28T12:51:02.713Z,34.78
2023-03-28T12:53:54.724Z,35.40
2023-03-28T12:56:42.115Z,35.25
2023-03-28T12:59:45.499Z,35.22
2023-03-28T13:02:50.754Z,35.51
2023-03-28T13:05:51.824Z,35.62
2023-03-28T13:09:18.078Z,36.01
2023-03-28T13:12:22.700Z,37.74
2023-03-28T13:15:27.171Z,34.43
2023-03-28T13:18:23.388Z,36.27
2023-03-28T13:21:07.384Z,34.01
2023-03-28T13:23:54.407Z,35.30
2023-03-28T13:26:56.364Z,33.91
2023-03-28T13:30:05.157Z,33.51
2023-03-28T13:32:54.957Z,35.88
2023-03-28T13:35:57.570Z,35.54
2023-03-28T13:38:50.857Z,37.87
2023-03-28T13:42:10.693Z,35.38
2023-03-28T13:45:02.252Z,33.92
2023-03-28T13:47:44.658Z,32.74
2023-03-28T13:50:34.015Z,34.21
2023-03-28T13:53:17.949Z,35.62
2023-03-28T13:56:35.434Z,40.83
2023-03-28T13:59:37.892Z,44.84
2023-03-28T14:02:36.578Z,47.01
2023-03-28T14:05:31.799Z,47.20
2023-03-28T14:08:26.918Z,44.02
2023-03-28T14:11:07.769Z,44.37
2023-03-28T14:13:52.148Z,45.96
2023-03-28T14:16:30.858Z,46.84
2023-03-28T14:19:14.263Z,47.01
2023-03-28T14:22:03.343Z,48.61
2023-03-28T14:24:58.587Z,49.64
2023-03-28T14:27:56.226Z,49.88
2023-03-28T14:30:44.102Z,50.86
2023-03-28T14:33:33.522Z,51.58
2023-03-28T14:36:21.055Z,50.81
2023-03-28T14:39:31.789Z,53.09
2023-03-28T14:42:12.787Z,52.49
2023-03-28T14:45:02.751Z,51.91
2023-03-28T14:47:48.809Z,50.19
2023-03-28T14:50:40.154Z,55.04
2023-03-28T14:53:34.253Z,52.39
2023-03-28T14:56:31.810Z,50.62
2023-03-28T14:59:10.051Z,49.68
2023-03-28T15:01:58.899Z,52.80
2023-03-28T15:04:38.521Z,52.97
2023-03-28T15:07:41.536Z,53.15
2023-03-28T15:10:32.661Z,51.11
2023-03-28T15:13:23.466Z,49.76
2023-03-28T15:16:08.065Z,49.72
2023-03-28T15:19:11.197Z,48.59
2023-03-28T15:21:54.557Z,48.32
2023-03-28T15:24:38.813Z,49.18
2023-03-28T15:27:46.885Z,49.62
2023-03-28T15:30:28.793Z,48.76
2023-03-28T15:33:19.137Z,47.32
2023-03-28T15:36:26.961Z,45.87
2023-03-28T15:39:33.791Z,43.13
2023-03-28T15:42:29.543Z,41.98
2023-03-28T15:45:32.218Z,41.98
2023-03-28T15:48:19.909Z,41.84
2023-03-28T15:51:14.626Z,40.64
2023-03-28T15:53:58.955Z,40.76
2023-03-28T15:56:35.700Z,44.44
2023-03-28T15:59:31.595Z,52.46
2023-03-28T16:02:38.972Z,56.07
2023-03-28T16:05:40.944Z,58.18
2023-03-28T16:08:31.249Z,57.50
2023-03-28T16:11:06.432Z,57.85
2023-03-28T16:13:57.183Z,63.46
2023-03-28T16:16:58.528Z,54.55
2023-03-28T16:19:48.908Z,52.03
2023-03-28T16:22:27.822Z,51.76
2023-03-28T16:25:11.649Z,50.89
2023-03-28T16:28:07.156Z,50.17
2023-03-28T16:30:48.796Z,52.39
2023-03-28T16:33:37.238Z,54.70
2023-03-28T16:36:17.292Z,55.76
2023-03-28T16:38:56.404Z,56.99
2023-03-28T16:41:43.780Z,59.07
2023-03-28T16:44:27.496Z,60.70
2023-03-28T16:47:26.125Z,61.31
2023-03-28T16:50:04.169Z,62.18
2023-03-28T16:52:48.100Z,63.82
2023-03-28T16:55:24.969Z,64.37
2023-03-28T16:58:01.165Z,65.26
2023-03-28T17:00:49.845Z,66.45
2023-03-28T17:03:38.599Z,66.85
2023-03-28T17:06:18.536Z,67.02
2023-03-28T17:09:02.111Z,67.29
2023-03-28T17:11:42.912Z,66.64
2023-03-28T17:14:25.575Z,66.92
2023-03-28T17:17:15.014Z,66.35
2023-03-28T17:20:01.410Z,64.09
2023-03-28T17:22:48.099Z,63.74
2023-03-28T17:25:30.950Z,61.44
2023-03-28T17:28:16.264Z,60.37
2023-03-28T17:31:10.668Z,60.22
2023-03-28T17:33:59.997Z,59.68
2023-03-28T17:36:43.280Z,59.18
2023-03-28T17:39:30.042Z,59.28
2023-03-28T17:42:05.792Z,59.25
2023-03-28T17:44:54.561Z,60.23
2023-03-28T17:47:33.102Z,59.64
2023-03-28T17:50:16.415Z,59.96
2023-03-28T17:52:57.538Z,59.18
2023-03-28T17:55:36.004Z,59.41
2023-03-28T17:58:22.974Z,59.93
2023-03-28T18:01:05.404Z,59.93
2023-03-28T18:03:46.327Z,60.38
2023-03-28T18:06:47.951Z,60.59
2023-03-28T18:09:28.250Z,60.56
2023-03-28T18:12:07.120Z,60.56
2023-03-28T18:14:51.098Z,60.04
2023-03-28T18:17:43.919Z,59.61
2023-03-28T18:20:24.925Z,59.82
2023-03-28T18:23:08.240Z,59.81
2023-03-28T18:26:00.172Z,60.90
2023-03-28T18:28:52.739Z,61.11
2023-03-28T18:31:36.475Z,62.40
2023-03-28T18:34:30.113Z,62.05
2023-03-28T18:37:12.064Z,62.11
2023-03-28T18:39:52.424Z,62.77
2023-03-28T18:42:35.776Z,62.41
2023-03-28T18:45:15.052Z,63.04
2023-03-28T18:48:04.249Z,63.67
2023-03-28T18:50:46.958Z,64.02
2023-03-28T18:53:32.259Z,64.57
2023-03-28T18:56:19.824Z,64.88
2023-03-28T18:59:04.249Z,65.43
2023-03-28T19:01:51.580Z,67.00
2023-03-28T19:04:32.655Z,67.83
2023-03-28T19:07:13.517Z,68.53
2023-03-28T19:09:59.784Z,69.05
2023-03-28T19:12:43.534Z,68.68
2023-03-28T19:15:18.693Z,69.11
2023-03-28T19:18:05.703Z,68.76
2023-03-28T19:20:51.194Z,69.37
2023-03-28T19:23:44.174Z,69.69
2023-03-28T19:26:18.775Z,69.30
2023-03-28T19:28:56.029Z,69.49
2023-03-28T19:31:34.242Z,69.50
2023-03-28T19:34:30.252Z,69.41
2023-03-28T19:37:17.609Z,69.29
2023-03-28T19:40:00.431Z,69.23
2023-03-28T19:42:38.751Z,68.78
2023-03-28T19:45:25.299Z,69.14
2023-03-28T19:48:06.250Z,67.89
2023-03-28T19:50:50.736Z,67.11
2023-03-28T19:53:33.981Z,67.27
2023-03-28T19:56:17.131Z,66.32
2023-03-28T19:59:00.702Z,66.58
2023-03-28T20:01:39.039Z,65.71
2023-03-28T20:04:27.738Z,66.00
2023-03-28T20:07:08.527Z,65.25
2023-03-28T20:09:53.044Z,65.81
2023-03-28T20:12:44.772Z,65.44
2023-03-28T20:15:34.423Z,65.19
2023-03-28T20:18:15.803Z,65.15
2023-03-28T20:21:02.273Z,64.97
2023-03-28T20:23:43.793Z,64.63
2023-03-28T20:26:30.839Z,65.28
2023-03-28T20:29:19.461Z,64.76
2023-03-28T20:32:01.733Z,65.25
2023-03-28T20:34:45.544Z,65.97
2023-03-28T20:37:32.595Z,66.07
2023-03-28T20:40:13.775Z,66.12
2023-03-28T20:42:57.370Z,66.62
2023-03-28T20:45:46.180Z,67.12
2023-03-28T20:48:34.597Z,66.52
2023-03-28T20:51:23.475Z,66.60
2023-03-28T20:54:06.585Z,66.71
2023-03-28T20:56:47.462Z,67.36
2023-03-28T20:59:28.679Z,66.16
2023-03-28T21:02:14.604Z,66.99
2023-03-28T21:04:52.228Z,66.87
2023-03-28T21:07:42.991Z,67.24
2023-03-28T21:10:35.581Z,67.28
2023-03-28T21:13:13.071Z,67.76
2023-03-28T21:15:54.122Z,68.70
2023-03-28T21:18:34.982Z,69.42
2023-03-28T21:21:29.682Z,69.51
2023-03-28T21:24:12.514Z,69.24
2023-03-28T21:26:50.337Z,70.04
2023-03-28T21:29:30.695Z,69.77
2023-03-28T21:32:17.803Z,69.57
2023-03-28T21:34:58.728Z,70.28
2023-03-28T21:37:40.054Z,69.93
2023-03-28T21:40:26.821Z,69.91
2023-03-28T21:43:26.338Z,70.49
2023-03-28T21:46:08.404Z,70.25
2023-03-28T21:48:53.895Z,70.47
2023-03-28T21:51:41.220Z,70.89
2023-03-28T21:54:16.714Z,70.66
2023-03-28T21:57:02.664Z,70.11
2023-03-28T21:59:49.592Z,70.56
2023-03-28T22:02:24.993Z,69.86
2023-03-28T22:05:18.526Z,69.46
2023-03-28T22:08:09.664Z,69.71
2023-03-28T22:11:02.353Z,70.10
2023-03-28T22:13:43.422Z,68.89
2023-03-28T22:16:32.602Z,69.09
2023-03-28T22:19:23.685Z,69.25
2023-03-28T22:22:03.989Z,68.76
2023-03-28T22:24:47.374Z,68.79
2023-03-28T22:27:32.045Z,68.84
2023-03-28T22:30:19.171Z,68.04
2023-03-28T22:33:02.569Z,67.94
2023-03-28T22:35:46.292Z,67.56
2023-03-28T22:38:36.560Z,67.30
2023-03-28T22:41:11.337Z,67.36
2023-03-28T22:44:00.126Z,67.24
2023-03-28T22:46:43.945Z,67.15
2023-03-28T22:49:27.680Z,67.28
2023-03-28T22:52:13.737Z,66.85
2023-03-28T22:55:03.065Z,66.61
2023-03-28T22:57:54.318Z,67.59
2023-03-28T23:00:35.082Z,67.46
2023-03-28T23:03:16.096Z,67.45
2023-03-28T23:05:55.370Z,67.14
2023-03-28T23:08:38.349Z,67.43
2023-03-28T23:11:16.662Z,67.54
2023-03-28T23:13:57.665Z,67.59
2023-03-28T23:16:47.129Z,67.41
2023-03-28T23:19:27.184Z,67.41
2023-03-28T23:22:07.370Z,67.79
2023-03-28T23:24:49.906Z,66.74
2023-03-28T23:27:32.963Z,67.45
2023-03-28T23:30:20.763Z,67.15
2023-03-28T23:33:04.524Z,67.53
2023-03-28T23:35:48.405Z,67.32
2023-03-28T23:38:29.017Z,66.66
2023-03-28T23:41:04.350Z,66.21
2023-03-28T23:43:50.765Z,65.24
2023-03-28T23:46:31.980Z,65.91
2023-03-28T23:49:16.059Z,65.66
2023-03-28T23:51:59.913Z,66.06
2023-03-28T23:54:40.705Z,66.01
2023-03-28T23:57:25.063Z,64.94
